Time,TemperatureF,DewpointF,PressureIn,WindDirection,WindDirectionDegrees,WindSpeedMPH,WindSpeedGustMPH,Humidity,HourlyPrecipIn,Conditions,Clouds,dailyrainin,SoftwareType,DateUTC
2013-12-09 00:05:00,25.5,24.0,30.00,SE,139,0.0,4.0,92,0.00,,,0.00,weatherlink.com 1.10,2013-12-09 05:05:00,
2013-12-09 00:20:00,25.5,24.0,30.00,East,91,0.0,4.0,93,0.00,,,0.00,weatherlink.com 1.10,2013-12-09 05:20:00,
2013-12-09 00:35:00,25.5,24.0,29.98,ENE,59,1.0,4.0,93,0.00,,,0.00,weatherlink.com 1.10,2013-12-09 05:35:00,
2013-12-09 00:50:00,25.4,24.0,29.97,ESE,115,1.0,2.0,93,0.00,,,0.00,weatherlink.com 1.10,2013-12-09 05:50:00,
2013-12-09 01:05:00,25.4,24.0,29.95,ESE,108,0.0,2.0,94,0.00,,,0.00,weatherlink.com 1.10,2013-12-09 06:05:00,
2013-12-09 01:20:00,25.4,24.0,29.93,SE,136,0.0,3.0,94,0.00,,,0.00,weatherlink.com 1.10,2013-12-09 06:20:00,
2013-12-09 01:35:00,25.5,24.0,29.92,ENE,77,1.0,4.0,94,0.00,,,0.00,weatherlink.com 1.10,2013-12-09 06:35:00,
2013-12-09 01:50:00,25.6,24.0,29.91,East,87,0.0,1.0,94,0.00,,,0.00,weatherlink.com 1.10,2013-12-09 06:50:00,
2013-12-09 02:05:00,25.8,24.0,29.91,SSE,148,0.0,2.0,94,0.00,,,0.00,weatherlink.com 1.10,2013-12-09 07:05:00,
2013-12-09 02:20:00,26.1,25.0,29.90,SE,126,0.0,2.0,95,0.00,,,0.00,weatherlink.com 1.10,2013-12-09 07:20:00,
2013-12-09 02:35:00,26.3,25.0,29.90,SE,145,0.0,2.0,95,0.00,,,0.00,weatherlink.com 1.10,2013-12-09 07:35:00,
2013-12-09 02:50:00,26.5,25.0,29.89,SE,143,0.0,2.0,95,0.00,,,0.00,weatherlink.com 1.10,2013-12-09 07:50:00,
2013-12-09 03:05:00,26.7,26.0,29.90,SSW,203,1.0,2.0,95,0.00,,,0.00,weatherlink.com 1.10,2013-12-09 08:05:00,
2013-12-09 03:20:00,27.0,26.0,29.89,WSW,253,1.0,2.0,95,0.00,,,0.00,weatherlink.com 1.10,2013-12-09 08:20:00,
2013-12-09 03:35:00,27.6,26.0,29.89,SW,233,2.0,5.0,95,0.00,,,0.00,weatherlink.com 1.10,2013-12-09 08:35:00,
2013-12-09 03:50:00,28.0,27.0,29.89,WSW,238,7.0,8.0,95,0.00,,,0.00,weatherlink.com 1.10,2013-12-09 08:50:00,
2013-12-09 04:20:00,28.1,26.0,29.88,South,183,2.0,10.0,92,0.00,,,0.00,weatherlink.com 1.10,2013-12-09 09:20:00,
2013-12-09 04:36:00,28.0,26.0,29.88,SSW,211,4.0,9.0,92,0.00,,,0.00,weatherlink.com 1.10,2013-12-09 09:36:00,
2013-12-09 04:51:00,28.0,26.0,29.87,West,264,2.0,9.0,91,0.00,,,0.00,weatherlink.com 1.10,2013-12-09 09:51:00,
2013-12-09 05:06:00,27.9,25.0,29.87,WSW,250,2.0,8.0,90,0.00,,,0.00,weatherlink.com 1.10,2013-12-09 10:06:00,
2013-12-09 05:21:00,27.9,25.0,29.87,WNW,283,8.0,11.0,90,0.00,,,0.00,weatherlink.com 1.10,2013-12-09 10:21:00,
2013-12-09 05:36:00,27.8,25.0,29.88,SW,219,6.0,9.0,89,0.00,,,0.00,weatherlink.com 1.10,2013-12-09 10:36:00,
2013-12-09 05:51:00,27.6,25.0,29.87,WSW,238,5.0,10.0,89,0.00,,,0.00,weatherlink.com 1.10,2013-12-09 10:51:00,
2013-12-09 06:06:00,27.4,25.0,29.87,WSW,257,5.0,10.0,89,0.00,,,0.00,weatherlink.com 1.10,2013-12-09 11:06:00,
2013-12-09 06:21:00,27.4,25.0,29.87,WSW,255,5.0,11.0,90,0.00,,,0.00,weatherlink.com 1.10,2013-12-09 11:21:00,
2013-12-09 06:36:00,27.3,25.0,29.87,West,262,4.0,7.0,91,0.00,,,0.00,weatherlink.com 1.10,2013-12-09 11:36:00,
2013-12-09 06:51:00,27.2,25.0,29.87,WSW,239,6.0,11.0,92,0.00,,,0.00,weatherlink.com 1.10,2013-12-09 11:51:00,
2013-12-09 07:06:00,27.1,25.0,29.88,SW,235,6.0,11.0,93,0.00,,,0.00,weatherlink.com 1.10,2013-12-09 12:06:00,
2013-12-09 07:21:00,27.1,26.0,29.88,West,259,6.0,9.0,94,0.00,,,0.00,weatherlink.com 1.10,2013-12-09 12:21:00,
2013-12-09 07:36:00,27.3,26.0,29.88,SW,228,5.0,13.0,94,0.00,,,0.00,weatherlink.com 1.10,2013-12-09 12:36:00,
2013-12-09 07:51:00,27.4,26.0,29.88,WSW,250,5.0,14.0,94,0.00,,,0.00,weatherlink.com 1.10,2013-12-09 12:51:00,
2013-12-09 08:06:00,27.5,26.0,29.88,WNW,294,2.0,14.0,94,0.00,,,0.00,weatherlink.com 1.10,2013-12-09 13:06:00,
2013-12-09 08:21:00,27.5,26.0,29.88,WSW,242,4.0,13.0,94,0.00,,,0.00,weatherlink.com 1.10,2013-12-09 13:21:00,
2013-12-09 08:36:00,27.6,26.0,29.89,WSW,252,8.0,11.0,93,0.00,,,0.00,weatherlink.com 1.10,2013-12-09 13:36:00,
2013-12-09 08:51:00,27.7,26.0,29.89,SW,223,8.0,13.0,93,0.00,,,0.00,weatherlink.com 1.10,2013-12-09 13:51:00,
2013-12-09 09:06:00,27.8,26.0,29.89,SW,233,5.0,13.0,92,0.00,,,0.00,weatherlink.com 1.10,2013-12-09 14:06:00,
2013-12-09 09:21:00,27.9,26.0,29.90,SW,224,7.0,15.0,92,0.00,,,0.00,weatherlink.com 1.10,2013-12-09 14:21:00,
2013-12-09 09:36:00,28.0,26.0,29.91,WSW,239,8.0,13.0,91,0.00,,,0.00,weatherlink.com 1.10,2013-12-09 14:36:00,
2013-12-09 09:51:00,28.1,26.0,29.92,WSW,243,10.0,15.0,91,0.00,,,0.00,weatherlink.com 1.10,2013-12-09 14:51:00,
2013-12-09 10:06:00,28.2,26.0,29.93,WSW,240,8.0,13.0,91,0.00,,,0.00,weatherlink.com 1.10,2013-12-09 15:06:00,
2013-12-09 10:21:00,28.3,26.0,29.93,WSW,245,10.0,17.0,90,0.00,,,0.00,weatherlink.com 1.10,2013-12-09 15:21:00,
2013-12-09 10:36:00,28.5,26.0,29.94,WNW,286,7.0,13.0,89,0.00,,,0.00,weatherlink.com 1.10,2013-12-09 15:36:00,
2013-12-09 10:51:00,28.6,26.0,29.95,West,273,9.0,16.0,88,0.00,,,0.00,weatherlink.com 1.10,2013-12-09 15:51:00,
2013-12-09 11:06:00,28.8,25.0,29.95,West,260,9.0,18.0,86,0.00,,,0.00,weatherlink.com 1.10,2013-12-09 16:06:00,
2013-12-09 11:21:00,28.6,25.0,29.95,WNW,285,11.0,21.0,85,0.00,,,0.00,weatherlink.com 1.10,2013-12-09 16:21:00,
2013-12-09 11:36:00,28.7,25.0,29.93,West,277,9.0,23.0,85,0.00,,,0.00,weatherlink.com 1.10,2013-12-09 16:36:00,
2013-12-09 11:51:00,28.6,24.0,29.93,West,264,10.0,18.0,84,0.00,,,0.00,weatherlink.com 1.10,2013-12-09 16:51:00,
2013-12-09 12:06:00,28.7,25.0,29.93,West,267,9.0,15.0,84,0.00,,,0.00,weatherlink.com 1.10,2013-12-09 17:06:00,
2013-12-09 12:21:00,28.5,24.0,29.93,West,277,9.0,17.0,84,0.00,,,0.00,weatherlink.com 1.10,2013-12-09 17:21:00,
2013-12-09 12:36:00,28.5,24.0,29.91,WSW,245,8.0,17.0,82,0.00,,,0.00,weatherlink.com 1.10,2013-12-09 17:36:00,
2013-12-09 12:51:00,28.7,24.0,29.91,WNW,285,3.0,20.0,81,0.00,,,0.00,weatherlink.com 1.10,2013-12-09 17:51:00,
2013-12-09 13:07:00,28.7,23.0,29.92,West,264,6.0,19.0,80,0.00,,,0.00,weatherlink.com 1.10,2013-12-09 18:07:00,
2013-12-09 13:21:00,28.6,22.0,29.93,WSW,248,8.0,24.0,76,0.00,,,0.00,weatherlink.com 1.10,2013-12-09 18:21:00,
2013-12-09 13:36:00,28.0,21.0,29.93,WSW,245,17.0,21.0,76,0.00,,,0.00,weatherlink.com 1.10,2013-12-09 18:36:00,
2013-12-09 13:51:00,27.6,22.0,29.94,WSW,256,8.0,16.0,79,0.00,,,0.00,weatherlink.com 1.10,2013-12-09 18:51:00,
2013-12-09 14:07:00,27.5,22.0,29.95,West,264,14.0,19.0,78,0.00,,,0.00,weatherlink.com 1.10,2013-12-09 19:07:00,
2013-12-09 14:22:00,27.1,21.0,29.96,WNW,283,4.0,17.0,78,0.00,,,0.00,weatherlink.com 1.10,2013-12-09 19:22:00,
2013-12-09 14:37:00,26.1,22.0,29.97,West,267,5.0,15.0,83,0.00,,,0.00,weatherlink.com 1.10,2013-12-09 19:37:00,
2013-12-09 14:52:00,25.6,22.0,29.97,West,270,13.0,19.0,85,0.00,,,0.00,weatherlink.com 1.10,2013-12-09 19:52:00,
2013-12-09 15:07:00,25.6,21.0,29.97,West,267,8.0,13.0,82,0.00,,,0.00,weatherlink.com 1.10,2013-12-09 20:07:00,
2013-12-09 15:22:00,24.8,22.0,29.97,WNW,291,5.0,18.0,87,0.00,,,0.00,weatherlink.com 1.10,2013-12-09 20:22:00,
2013-12-09 15:37:00,25.6,21.0,29.97,West,272,13.0,19.0,82,0.00,,,0.00,weatherlink.com 1.10,2013-12-09 20:37:00,
2013-12-09 15:52:00,26.0,19.0,29.98,West,281,11.0,24.0,76,0.00,,,0.00,weatherlink.com 1.10,2013-12-09 20:52:00,
2013-12-09 16:07:00,25.4,20.0,29.99,WSW,245,8.0,24.0,80,0.00,,,0.00,weatherlink.com 1.10,2013-12-09 21:07:00,
2013-12-09 16:22:00,25.0,20.0,30.00,SW,235,8.0,22.0,80,0.00,,,0.00,weatherlink.com 1.10,2013-12-09 21:22:00,
2013-12-09 16:37:00,24.8,20.0,30.01,WNW,284,9.0,18.0,81,0.00,,,0.00,weatherlink.com 1.10,2013-12-09 21:37:00,
2013-12-09 16:52:00,24.6,19.0,30.01,North,10,8.0,22.0,79,0.00,,,0.00,weatherlink.com 1.10,2013-12-09 21:52:00,
2013-12-09 17:07:00,24.3,17.0,30.02,West,259,3.0,24.0,74,0.00,,,0.00,weatherlink.com 1.10,2013-12-09 22:07:00,
2013-12-09 17:22:00,24.1,18.0,30.02,West,259,8.0,16.0,76,0.00,,,0.00,weatherlink.com 1.10,2013-12-09 22:22:00,
2013-12-09 17:37:00,23.9,17.0,30.03,WSW,257,14.0,20.0,74,0.00,,,0.00,weatherlink.com 1.10,2013-12-09 22:37:00,
2013-12-09 17:52:00,23.6,17.0,30.02,SW,233,8.0,17.0,76,0.00,,,0.00,weatherlink.com 1.10,2013-12-09 22:52:00,
2013-12-09 18:07:00,23.8,17.0,30.03,West,281,12.0,31.0,75,0.00,,,0.00,weatherlink.com 1.10,2013-12-09 23:07:00,
2013-12-09 18:22:00,23.5,17.0,30.03,SW,231,12.0,19.0,75,0.00,,,0.00,weatherlink.com 1.10,2013-12-09 23:22:00,
2013-12-09 18:37:00,23.4,17.0,30.03,NW,310,6.0,19.0,77,0.00,,,0.00,weatherlink.com 1.10,2013-12-09 23:37:00,
2013-12-09 18:52:00,23.2,17.0,30.03,WSW,252,8.0,22.0,77,0.00,,,0.00,weatherlink.com 1.10,2013-12-09 23:52:00,
2013-12-09 19:07:00,22.9,16.0,30.03,WSW,255,11.0,20.0,76,0.00,,,0.00,weatherlink.com 1.10,2013-12-10 00:07:00,
2013-12-09 19:22:00,22.5,16.0,30.03,West,281,5.0,17.0,76,0.00,,,0.00,weatherlink.com 1.10,2013-12-10 00:22:00,
2013-12-09 19:37:00,22.4,16.0,30.03,West,274,4.0,20.0,76,0.00,,,0.00,weatherlink.com 1.10,2013-12-10 00:37:00,
2013-12-09 19:52:00,22.3,16.0,30.03,WNW,292,4.0,18.0,75,0.00,,,0.00,weatherlink.com 1.10,2013-12-10 00:52:00,
2013-12-09 20:07:00,22.3,16.0,30.04,WSW,248,3.0,18.0,76,0.00,,,0.00,weatherlink.com 1.10,2013-12-10 01:07:00,
2013-12-09 20:22:00,22.1,16.0,30.04,WNW,290,5.0,17.0,76,0.00,,,0.00,weatherlink.com 1.10,2013-12-10 01:22:00,
2013-12-09 20:37:00,22.0,16.0,30.04,West,269,4.0,16.0,76,0.00,,,0.00,weatherlink.com 1.10,2013-12-10 01:37:00,
2013-12-09 20:52:00,21.7,16.0,30.05,West,262,10.0,17.0,77,0.00,,,0.00,weatherlink.com 1.10,2013-12-10 01:52:00,
2013-12-09 21:07:00,21.7,16.0,30.05,WSW,248,12.0,15.0,77,0.00,,,0.00,weatherlink.com 1.10,2013-12-10 02:07:00,
2013-12-09 21:22:00,21.6,14.0,30.05,WSW,243,19.0,22.0,73,0.00,,,0.00,weatherlink.com 1.10,2013-12-10 02:22:00,
2013-12-09 21:37:00,21.2,13.0,30.06,NW,319,7.0,26.0,71,0.00,,,0.00,weatherlink.com 1.10,2013-12-10 02:37:00,
2013-12-09 21:53:00,20.6,13.0,30.05,North,8,17.0,18.0,72,0.00,,,0.00,weatherlink.com 1.10,2013-12-10 02:53:00,
2013-12-09 22:08:00,20.2,12.0,30.05,West,260,8.0,25.0,71,0.00,,,0.00,weatherlink.com 1.10,2013-12-10 03:08:00,
2013-12-09 22:23:00,19.4,12.0,30.05,West,280,4.0,21.0,73,0.00,,,0.00,weatherlink.com 1.10,2013-12-10 03:23:00,
2013-12-09 22:38:00,18.9,11.0,30.05,West,259,4.0,16.0,72,0.00,,,0.00,weatherlink.com 1.10,2013-12-10 03:38:00,
2013-12-09 22:53:00,18.5,11.0,30.06,WNW,302,4.0,16.0,71,0.00,,,0.00,weatherlink.com 1.10,2013-12-10 03:53:00,
2013-12-09 23:08:00,18.1,10.0,30.07,WNW,283,6.0,16.0,71,0.00,,,0.00,weatherlink.com 1.10,2013-12-10 04:08:00,
2013-12-09 23:23:00,17.9,10.0,30.08,West,281,5.0,16.0,71,0.00,,,0.00,weatherlink.com 1.10,2013-12-10 04:23:00,
2013-12-09 23:38:00,17.9,10.0,30.07,West,265,9.0,24.0,70,0.00,,,0.00,weatherlink.com 1.10,2013-12-10 04:38:00,
2013-12-09 23:53:00,17.5,9.0,30.08,NNW,333,6.0,15.0,69,0.00,,,0.00,weatherlink.com 1.10,2013-12-10 04:53:00,